Time;durP1;ratioP1;P1;durP2;ratioP2;P2;SDS_P1;SDS_P2;PMS_P1;PMS_P2;Temp;Humidity;BMP_temperature;BMP_pressure;BME280_temperature;BME280_humidity;BME280_pressure;Samples;Min_cycle;Max_cycle;Signal;HPM_P1;HPM_P2
2022/03/07 00:02:06;;;;;;;6.17;4.57;;;3.00;99.90;;;;;;5016034;28;20727;-75
2022/03/07 00:04:32;;;;;;;7.90;4.27;;;2.90;99.90;;;;;;5032921;28;20709;-75
2022/03/07 00:06:57;;;;;;;5.57;4.03;;;2.90;99.90;;;;;;5015461;28;20294;-75
2022/03/07 00:09:23;;;;;;;7.90;4.47;;;2.90;99.90;;;;;;5032250;28;20643;-75
2022/03/07 00:11:48;;;;;;;8.30;4.33;;;2.90;99.90;;;;;;5015149;28;20677;-75
2022/03/07 00:14:14;;;;;;;6.17;4.27;;;2.90;99.90;;;;;;5032912;28;20226;-75
2022/03/07 00:16:40;;;;;;;8.60;4.23;;;2.90;99.90;;;;;;5032856;28;20274;-75
2022/03/07 00:19:06;;;;;;;7.17;4.70;;;2.90;99.90;;;;;;5014577;28;20275;-75
2022/03/07 00:21:31;;;;;;;7.90;4.60;;;2.90;99.90;;;;;;5032474;28;20295;-74
2022/03/07 00:23:57;;;;;;;9.37;4.97;;;3.00;99.90;;;;;;5032876;28;20203;-75
2022/03/07 00:26:23;;;;;;;7.80;4.80;;;3.00;99.90;;;;;;5040599;28;20709;-75
2022/03/07 00:28:49;;;;;;;6.87;4.47;;;2.90;99.90;;;;;;5030324;28;20226;-75
2022/03/07 00:31:15;;;;;;;8.10;5.00;;;2.90;99.90;;;;;;5032648;28;20207;-75
2022/03/07 00:33:41;;;;;;;10.37;4.37;;;2.90;99.90;;;;;;5014643;28;20235;-75
2022/03/07 00:36:07;;;;;;;6.43;4.57;;;2.90;99.90;;;;;;5032370;28;20269;-75
2022/03/07 00:38:33;;;;;;;6.50;4.67;;;2.80;99.90;;;;;;5013730;28;20230;-75
2022/03/07 00:40:59;;;;;;;7.50;4.67;;;2.80;99.90;;;;;;5015096;28;20549;-75
2022/03/07 00:43:25;;;;;;;6.73;4.53;;;2.80;99.90;;;;;;5040280;28;20212;-75
2022/03/07 00:45:51;;;;;;;9.43;4.90;;;2.80;99.90;;;;;;5032084;28;20210;-75
2022/03/07 00:48:16;;;;;;;7.80;4.60;;;2.70;99.90;;;;;;5031316;28;20330;-75
2022/03/07 00:50:46;;;;;;;8.97;4.70;;;2.70;99.90;;;;;;5040244;28;20225;-75
2022/03/07 00:53:13;;;;;;;7.97;4.80;;;2.70;99.90;;;;;;5040061;28;20262;-75
2022/03/07 00:55:39;;;;;;;6.47;4.50;;;2.60;99.90;;;;;;5032245;28;20239;-75
2022/03/07 00:58:05;;;;;;;7.60;4.80;;;2.60;99.90;;;;;;5013470;28;20216;-75
2022/03/07 01:00:33;;;;;;;13.57;4.83;;;2.50;99.90;;;;;;5031911;28;20723;-75
2022/03/07 01:02:59;;;;;;;8.60;5.13;;;2.50;99.90;;;;;;5014265;28;20207;-75
2022/03/07 01:05:24;;;;;;;8.47;4.70;;;2.50;99.90;;;;;;5032151;28;20564;-75
2022/03/07 01:07:50;;;;;;;8.47;5.27;;;2.40;99.90;;;;;;5014553;28;20172;-75
2022/03/07 01:10:15;;;;;;;7.20;5.17;;;2.40;99.90;;;;;;5013621;28;20258;-75
2022/03/07 01:12:41;;;;;;;9.17;4.53;;;2.40;99.90;;;;;;5031463;28;20210;-76
2022/03/07 01:15:08;;;;;;;5.97;4.30;;;2.30;99.90;;;;;;5013784;28;20225;-75
2022/03/07 01:17:34;;;;;;;7.40;5.07;;;2.30;99.90;;;;;;5013587;28;20227;-75
2022/03/07 01:20:00;;;;;;;8.47;4.97;;;2.30;99.90;;;;;;5031318;28;20242;-75
2022/03/07 01:22:25;;;;;;;11.57;5.03;;;2.20;99.90;;;;;;5013636;28;20585;-75
2022/03/07 01:24:51;;;;;;;9.73;4.73;;;2.20;99.90;;;;;;5031518;28;20295;-75
2022/03/07 01:27:16;;;;;;;6.87;4.83;;;2.20;99.90;;;;;;5031291;28;20694;-75
2022/03/07 01:29:42;;;;;;;6.47;5.13;;;2.20;99.90;;;;;;5012544;28;20698;-75
2022/03/07 01:32:08;;;;;;;6.67;4.60;;;2.20;99.90;;;;;;5031900;28;20240;-75
2022/03/07 01:34:33;;;;;;;8.03;4.27;;;2.20;99.90;;;;;;5015908;28;20249;-75
2022/03/07 01:36:59;;;;;;;7.83;4.57;;;2.10;99.90;;;;;;5016298;28;20273;-75
2022/03/07 01:39:24;;;;;;;10.30;4.97;;;2.10;99.90;;;;;;5016812;28;20199;-75
2022/03/07 01:41:50;;;;;;;7.40;4.90;;;2.10;99.90;;;;;;5034681;28;20209;-76
2022/03/07 01:44:20;;;;;;;6.77;4.60;;;2.10;99.90;;;;;;5015336;28;20178;-75
2022/03/07 01:46:47;;;;;;;10.37;4.73;;;2.10;99.90;;;;;;5023534;28;20212;-76
2022/03/07 01:49:13;;;;;;;8.10;5.37;;;2.00;99.90;;;;;;5038251;28;20215;-75
2022/03/07 01:51:41;;;;;;;7.00;5.30;;;2.00;99.90;;;;;;5030743;28;20212;-75
2022/03/07 01:54:10;;;;;;;8.03;5.07;;;2.00;99.90;;;;;;5030843;28;20266;-75
2022/03/07 01:56:35;;;;;;;8.43;5.10;;;2.00;99.90;;;;;;5030678;28;20595;-75
2022/03/07 01:59:03;;;;;;;8.13;4.90;;;2.00;99.90;;;;;;5030693;28;20164;-75
2022/03/07 02:01:29;;;;;;;7.63;4.73;;;2.00;99.90;;;;;;5013428;28;20204;-75
2022/03/07 02:03:54;;;;;;;9.73;5.63;;;2.00;99.90;;;;;;5039201;28;20206;-75
2022/03/07 02:06:21;;;;;;;7.30;5.10;;;2.00;99.90;;;;;;5031062;28;20217;-75
2022/03/07 02:08:47;;;;;;;7.20;5.13;;;2.00;99.90;;;;;;5029986;28;20209;-75
2022/03/07 02:11:15;;;;;;;7.53;4.87;;;2.00;99.90;;;;;;5030812;28;20188;-75
2022/03/07 02:13:40;;;;;;;8.47;5.13;;;2.00;99.90;;;;;;5031033;28;20180;-75
2022/03/07 02:16:06;;;;;;;7.67;5.63;;;2.00;99.90;;;;;;5030821;28;20754;-75
2022/03/07 02:18:32;;;;;;;10.23;4.83;;;2.10;99.90;;;;;;5029826;28;20214;-75
2022/03/07 02:21:09;;;;;;;6.73;5.33;;;2.00;99.90;;;;;;5013128;28;20290;-75
2022/03/07 02:23:35;;;;;;;7.77;4.53;;;2.00;99.90;;;;;;5012649;28;20763;-75
2022/03/07 02:26:11;;;;;;;7.90;5.10;;;2.00;99.90;;;;;;5030797;28;20198;-75
2022/03/07 02:28:40;;;;;;;9.27;5.50;;;2.00;99.90;;;;;;5012175;28;20215;-75
2022/03/07 02:31:06;;;;;;;8.93;5.00;;;2.00;99.90;;;;;;5030461;28;20214;-75
2022/03/07 02:33:33;;;;;;;9.07;4.87;;;2.00;99.90;;;;;;5012789;28;20207;-75
2022/03/07 02:35:59;;;;;;;6.67;5.17;;;2.00;99.90;;;;;;5030545;28;20215;-75
2022/03/07 02:38:24;;;;;;;10.40;5.37;;;1.90;99.90;;;;;;5011881;28;20213;-75
2022/03/07 02:40:50;;;;;;;7.97;4.83;;;1.90;99.90;;;;;;5013062;28;20212;-75
2022/03/07 02:43:15;;;;;;;7.97;4.90;;;1.80;99.90;;;;;;5030334;28;20210;-75
2022/03/07 02:45:42;;;;;;;8.60;5.47;;;1.80;99.90;;;;;;5030025;28;20595;-75
2022/03/07 02:48:07;;;;;;;8.63;5.67;;;1.80;99.90;;;;;;5029503;28;20580;-75
2022/03/07 02:50:33;;;;;;;8.43;4.93;;;1.70;99.90;;;;;;5030416;28;20213;-76
2022/03/07 02:52:58;;;;;;;12.43;5.23;;;1.70;99.90;;;;;;5030826;28;20172;-75
2022/03/07 02:55:24;;;;;;;7.63;5.23;;;1.60;99.90;;;;;;5029923;28;20222;-75
2022/03/07 02:57:50;;;;;;;8.60;5.30;;;1.60;99.90;;;;;;5029886;28;20305;-75
2022/03/07 03:00:16;;;;;;;7.17;5.50;;;1.60;99.90;;;;;;5014457;28;20211;-75
2022/03/07 03:02:41;;;;;;;11.10;6.17;;;1.50;99.90;;;;;;5033808;28;20212;-75
2022/03/07 03:05:08;;;;;;;8.03;5.27;;;1.50;99.90;;;;;;5034708;28;20230;-75
2022/03/07 03:07:34;;;;;;;6.93;5.47;;;1.50;99.90;;;;;;5016102;28;20217;-75
2022/03/07 03:10:00;;;;;;;7.53;5.53;;;1.50;99.90;;;;;;5015302;28;20211;-75
2022/03/07 03:12:26;;;;;;;11.00;5.27;;;1.60;99.90;;;;;;5033838;28;20232;-75
2022/03/07 03:14:53;;;;;;;7.30;5.53;;;1.50;99.90;;;;;;5033807;28;20251;-76
2022/03/07 03:17:18;;;;;;;8.67;5.97;;;1.50;99.90;;;;;;5033605;28;20215;-75
2022/03/07 03:19:43;;;;;;;7.47;5.30;;;1.50;99.90;;;;;;5023764;28;20184;-75
2022/03/07 03:22:09;;;;;;;8.53;5.57;;;1.50;99.90;;;;;;5033801;28;20803;-75
2022/03/07 03:24:35;;;;;;;8.10;5.33;;;1.40;99.90;;;;;;5033694;28;20371;-75
2022/03/07 03:27:01;;;;;;;8.10;5.77;;;1.40;99.90;;;;;;5015924;28;20643;-75
2022/03/07 03:29:26;;;;;;;10.17;5.83;;;1.40;99.90;;;;;;5015411;28;20261;-75
2022/03/07 03:31:52;;;;;;;9.30;5.53;;;1.50;99.90;;;;;;5033882;28;20230;-75
2022/03/07 03:34:17;;;;;;;7.13;5.47;;;1.40;99.90;;;;;;5015954;28;20212;-75
2022/03/07 03:36:43;;;;;;;7.37;5.50;;;1.40;99.90;;;;;;5018737;28;20719;-75
2022/03/07 03:39:08;;;;;;;10.30;5.93;;;1.40;99.90;;;;;;5041069;28;20207;-76
2022/03/07 03:41:34;;;;;;;7.83;5.63;;;1.40;99.90;;;;;;5041720;28;20277;-75
2022/03/07 03:43:59;;;;;;;7.67;5.60;;;1.40;99.90;;;;;;5042500;28;20262;-75
2022/03/07 03:46:25;;;;;;;11.87;6.23;;;1.40;99.90;;;;;;5007820;28;20214;-75
2022/03/07 03:48:50;;;;;;;9.90;5.43;;;1.30;99.90;;;;;;5039505;28;20693;-75
2022/03/07 03:51:16;;;;;;;8.03;5.37;;;1.30;99.90;;;;;;5053323;28;20239;-76
2022/03/07 03:53:41;;;;;;;9.90;6.40;;;1.30;99.90;;;;;;5035134;28;20690;-75
2022/03/07 03:56:07;;;;;;;8.13;6.03;;;1.40;99.90;;;;;;5035798;28;20199;-75
2022/03/07 03:58:32;;;;;;;10.77;6.53;;;1.40;99.90;;;;;;5051940;28;20273;-76
2022/03/07 04:00:58;;;;;;;7.87;5.63;;;1.40;99.90;;;;;;5022287;28;20591;-75
2022/03/07 04:03:24;;;;;;;10.17;6.07;;;1.40;99.90;;;;;;5049598;28;20214;-76
2022/03/07 04:05:50;;;;;;;12.20;6.83;;;1.40;99.90;;;;;;5034948;28;20204;-76
2022/03/07 04:08:16;;;;;;;8.90;6.00;;;1.40;99.90;;;;;;5052179;28;20175;-75
2022/03/07 04:10:41;;;;;;;9.77;6.70;;;1.40;99.90;;;;;;5053992;28;20204;-75
2022/03/07 04:13:06;;;;;;;8.30;5.53;;;1.30;99.90;;;;;;5034619;28;20216;-75
2022/03/07 04:15:32;;;;;;;9.33;6.57;;;1.30;99.90;;;;;;5016959;28;20221;-75
2022/03/07 04:17:57;;;;;;;9.57;6.37;;;1.20;99.90;;;;;;5023735;28;20222;-75
2022/03/07 04:20:23;;;;;;;9.37;6.23;;;1.20;99.90;;;;;;5054340;28;20204;-74
2022/03/07 04:22:48;;;;;;;8.03;6.27;;;1.20;99.90;;;;;;5037988;28;20184;-75
2022/03/07 04:25:14;;;;;;;11.47;7.27;;;1.20;99.90;;;;;;5037040;28;20215;-76
2022/03/07 04:27:39;;;;;;;11.03;6.70;;;1.20;99.90;;;;;;5054397;28;20585;-74
2022/03/07 04:30:07;;;;;;;10.23;6.60;;;1.20;99.90;;;;;;5028395;28;20203;-75
2022/03/07 04:32:36;;;;;;;11.00;6.97;;;1.20;99.90;;;;;;5057043;28;20663;-75
2022/03/07 04:35:04;;;;;;;10.33;6.97;;;1.20;99.90;;;;;;5059782;28;20253;-75
2022/03/07 04:37:31;;;;;;;11.53;6.97;;;1.20;99.90;;;;;;5033394;28;20243;-76
2022/03/07 04:39:57;;;;;;;10.20;6.87;;;1.20;99.90;;;;;;5040955;28;20214;-74
2022/03/07 04:42:22;;;;;;;12.77;7.40;;;1.20;99.90;;;;;;5051507;28;20272;-73
2022/03/07 04:44:48;;;;;;;11.90;6.83;;;1.10;99.90;;;;;;5042667;28;20237;-74
2022/03/07 04:47:14;;;;;;;10.13;6.30;;;1.20;99.90;;;;;;5049955;28;20203;-75
2022/03/07 04:49:39;;;;;;;10.80;7.00;;;1.20;99.90;;;;;;5050630;28;20192;-75
2022/03/07 04:52:05;;;;;;;11.87;7.03;;;1.20;99.90;;;;;;5023789;28;20852;-74
2022/03/07 04:54:30;;;;;;;10.17;6.37;;;1.20;99.90;;;;;;5051537;28;20287;-74
2022/03/07 04:56:56;;;;;;;9.53;6.30;;;1.10;99.90;;;;;;5020345;28;20239;-74
2022/03/07 04:59:21;;;;;;;10.03;7.17;;;1.10;99.90;;;;;;5047600;28;20608;-73
2022/03/07 05:01:47;;;;;;;12.63;7.23;;;1.10;99.90;;;;;;5034216;28;20195;-74
2022/03/07 05:04:13;;;;;;;9.67;7.33;;;1.10;99.90;;;;;;5033638;28;20249;-74
2022/03/07 05:06:38;;;;;;;12.47;8.00;;;1.10;99.90;;;;;;5033392;28;20213;-74
2022/03/07 05:09:04;;;;;;;11.90;6.93;;;1.20;99.90;;;;;;5018803;28;20642;-74
2022/03/07 05:11:30;;;;;;;10.97;7.83;;;1.20;99.90;;;;;;5031295;28;20664;-74
2022/03/07 05:13:55;;;;;;;12.60;7.13;;;1.20;99.90;;;;;;5020978;28;20181;-75
2022/03/07 05:16:21;;;;;;;11.90;7.93;;;1.20;99.90;;;;;;5024678;28;20210;-73
2022/03/07 05:18:46;;;;;;;12.67;8.10;;;1.20;99.90;;;;;;5041756;28;20270;-74
2022/03/07 05:21:12;;;;;;;14.07;7.80;;;1.20;99.90;;;;;;5018517;28;20211;-75
2022/03/07 05:23:38;;;;;;;13.33;7.67;;;1.20;99.90;;;;;;5050167;28;20231;-75
2022/03/07 05:26:04;;;;;;;15.67;8.30;;;1.20;99.90;;;;;;5026787;28;20285;-75
2022/03/07 05:28:29;;;;;;;14.70;9.00;;;1.30;99.90;;;;;;5050995;28;20350;-74
2022/03/07 05:30:55;;;;;;;11.63;7.70;;;1.30;99.90;;;;;;5051588;28;20206;-75
2022/03/07 05:33:20;;;;;;;13.63;8.50;;;1.30;99.90;;;;;;5051422;28;20593;-75
2022/03/07 05:35:46;;;;;;;14.03;8.43;;;1.30;99.90;;;;;;5069548;22;20227;-74
2022/03/07 05:38:11;;;;;;;13.30;8.20;;;1.30;99.90;;;;;;5047134;28;20572;-74
2022/03/07 05:40:37;;;;;;;11.97;8.23;;;1.30;99.90;;;;;;5071840;28;20185;-77
2022/03/07 05:43:03;;;;;;;13.57;8.30;;;1.30;99.90;;;;;;5071807;28;20214;-76
2022/03/07 05:45:28;;;;;;;15.13;8.93;;;1.30;99.90;;;;;;5053816;28;20264;-77
2022/03/07 05:47:54;;;;;;;15.77;8.70;;;1.40;99.90;;;;;;5063868;28;20260;-77
2022/03/07 05:50:19;;;;;;;14.93;8.87;;;1.40;99.90;;;;;;5071850;28;20272;-75
2022/03/07 05:52:45;;;;;;;15.20;8.77;;;1.50;99.90;;;;;;5072149;28;20305;-74
2022/03/07 05:55:11;;;;;;;17.13;8.63;;;1.50;99.90;;;;;;5071602;28;20207;-75
2022/03/07 05:57:36;;;;;;;13.87;8.43;;;1.50;99.90;;;;;;5071573;28;20293;-75
2022/03/07 06:00:05;;;;;;;14.60;8.83;;;1.50;99.90;;;;;;5071100;28;20300;-75
2022/03/07 06:02:30;;;;;;;17.17;8.93;;;1.60;99.90;;;;;;5071300;28;20613;-76
2022/03/07 06:04:56;;;;;;;13.73;8.03;;;1.60;99.90;;;;;;5067941;28;20170;-75
2022/03/07 06:07:21;;;;;;;13.73;8.90;;;1.60;99.90;;;;;;5071549;28;20660;-75
2022/03/07 06:09:47;;;;;;;15.97;9.03;;;1.70;99.90;;;;;;5071368;28;20218;-76
2022/03/07 06:12:12;;;;;;;17.27;8.77;;;1.70;99.90;;;;;;5071748;28;20699;-74
2022/03/07 06:14:38;;;;;;;13.00;8.13;;;1.80;99.90;;;;;;5053943;28;20294;-75
2022/03/07 06:17:03;;;;;;;16.63;8.67;;;1.90;99.90;;;;;;5071743;28;20201;-76
2022/03/07 06:19:29;;;;;;;11.90;8.13;;;2.20;99.90;;;;;;5071306;28;20203;-75
2022/03/07 06:21:54;;;;;;;13.77;7.90;;;4.00;99.90;;;;;;5071684;28;20206;-75
2022/03/07 06:24:20;;;;;;;12.53;7.13;;;5.90;99.90;;;;;;5071737;28;20218;-75
2022/03/07 06:26:45;;;;;;;12.17;7.67;;;7.30;99.90;;;;;;5071538;28;20300;-75
2022/03/07 06:29:11;;;;;;;9.40;6.60;;;8.50;99.90;;;;;;5071451;28;20228;-75
2022/03/07 06:31:36;;;;;;;9.20;6.27;;;9.40;99.90;;;;;;5072146;28;20179;-76
2022/03/07 06:34:03;;;;;;;13.47;7.30;;;10.00;99.90;;;;;;5071712;28;20222;-77
2022/03/07 06:36:28;;;;;;;9.80;6.73;;;10.70;99.90;;;;;;5074368;28;20263;-75
2022/03/07 06:38:54;;;;;;;11.03;6.93;;;11.30;99.90;;;;;;5074672;28;20269;-76
2022/03/07 06:41:19;;;;;;;10.07;6.40;;;12.10;99.90;;;;;;5075523;28;20179;-76
2022/03/07 06:43:45;;;;;;;9.30;6.20;;;12.30;99.90;;;;;;5076165;28;20573;-76
2022/03/07 06:46:10;;;;;;;12.07;7.37;;;12.50;99.90;;;;;;5075043;28;20213;-76
2022/03/07 06:48:36;;;;;;;9.60;7.33;;;13.20;99.90;;;;;;5074753;28;20699;-77
2022/03/07 06:51:02;;;;;;;8.30;7.00;;;13.60;99.90;;;;;;5075367;28;20223;-76
2022/03/07 06:53:27;;;;;;;9.70;7.13;;;14.00;99.90;;;;;;5074218;28;20179;-78
2022/03/07 06:55:53;;;;;;;11.07;6.97;;;13.90;99.90;;;;;;5057653;28;20210;-76
2022/03/07 06:58:19;;;;;;;10.77;7.18;;;14.10;99.90;;;;;;5074185;28;20626;-76
2022/03/07 07:00:45;;;;;;;8.95;6.93;;;14.40;99.90;;;;;;5057144;28;20203;-77
2022/03/07 07:03:10;;;;;;;10.98;7.97;;;14.40;99.90;;;;;;5057157;28;20195;-76
2022/03/07 07:05:36;;;;;;;12.48;7.80;;;14.50;99.90;;;;;;5073813;28;20260;-76
2022/03/07 07:08:02;;;;;;;11.57;7.78;;;15.00;99.90;;;;;;5074834;28;20211;-76
2022/03/07 07:10:28;;;;;;;9.05;7.40;;;15.10;99.90;;;;;;5056946;28;20729;-77
2022/03/07 07:12:53;;;;;;;10.85;7.35;;;15.00;99.90;;;;;;5056719;28;20237;-76
2022/03/07 07:15:19;;;;;;;13.40;7.43;;;14.60;99.90;;;;;;5074637;28;20695;-76
2022/03/07 07:17:46;;;;;;;9.88;7.85;;;14.80;99.90;;;;;;5056352;28;20228;-75
2022/03/07 07:20:12;;;;;;;10.23;7.45;;;15.30;99.90;;;;;;5074090;28;20168;-74
2022/03/07 07:22:39;;;;;;;10.32;7.88;;;15.10;99.90;;;;;;5075035;28;20171;-76
2022/03/07 07:25:05;;;;;;;11.00;7.32;;;15.20;99.90;;;;;;5056652;28;20206;-76
2022/03/07 07:27:31;;;;;;;10.15;6.90;;;15.00;99.90;;;;;;5074085;28;20222;-75
2022/03/07 07:29:57;;;;;;;9.38;7.30;;;15.00;99.90;;;;;;5074037;28;20209;-75
2022/03/07 07:32:23;;;;;;;7.68;6.35;;;14.70;99.90;;;;;;5074181;28;20197;-75
2022/03/07 07:34:48;;;;;;;9.48;6.53;;;15.00;99.90;;;;;;5056455;28;20246;-75
2022/03/07 07:37:14;;;;;;;8.30;7.00;;;15.20;99.90;;;;;;5073876;28;20645;-75
2022/03/07 07:39:39;;;;;;;11.48;8.13;;;15.10;99.90;;;;;;5073752;28;20771;-76
2022/03/07 07:42:05;;;;;;;8.90;6.35;;;14.70;99.90;;;;;;5074439;28;20198;-75
2022/03/07 07:44:31;;;;;;;10.50;7.38;;;14.80;99.90;;;;;;5074120;28;20663;-75
2022/03/07 07:46:56;;;;;;;10.95;7.80;;;14.90;99.90;;;;;;5072499;28;20230;-75
2022/03/07 07:49:24;;;;;;;10.13;7.15;;;15.00;99.90;;;;;;5072478;28;20265;-75
2022/03/07 07:51:53;;;;;;;11.38;7.18;;;15.10;99.90;;;;;;5072625;28;20287;-74
2022/03/07 07:54:18;;;;;;;10.10;7.47;;;14.80;99.90;;;;;;5072948;28;20219;-76
2022/03/07 07:56:44;;;;;;;10.95;7.13;;;14.40;99.90;;;;;;5072815;28;20219;-75
2022/03/07 07:59:12;;;;;;;10.38;7.10;;;14.90;99.90;;;;;;5072692;28;20167;-75
2022/03/07 08:01:38;;;;;;;15.43;11.70;;;14.70;99.90;;;;;;5054947;28;20278;-75
2022/03/07 08:04:03;;;;;;;11.27;7.22;;;14.60;99.90;;;;;;5054670;28;20299;-75
2022/03/07 08:06:29;;;;;;;11.88;7.55;;;14.80;99.90;;;;;;5071126;28;20262;-76
2022/03/07 08:08:55;;;;;;;13.02;8.75;;;14.80;99.90;;;;;;5071963;28;20285;-75
2022/03/07 08:11:20;;;;;;;13.18;7.85;;;14.70;99.90;;;;;;5054737;28;20281;-75
2022/03/07 08:13:46;;;;;;;15.40;8.45;;;14.60;99.90;;;;;;5056717;28;20552;-76
2022/03/07 08:16:11;;;;;;;17.67;11.73;;;14.50;99.90;;;;;;5072333;28;20281;-76
2022/03/07 08:18:36;;;;;;;11.25;7.20;;;14.80;99.90;;;;;;5071468;28;20211;-76
2022/03/07 08:21:02;;;;;;;15.02;8.32;;;15.10;99.90;;;;;;5054298;28;20223;-76
2022/03/07 08:23:28;;;;;;;19.25;11.10;;;15.00;99.90;;;;;;5072375;28;20183;-75
2022/03/07 08:25:53;;;;;;;12.68;7.32;;;15.00;99.90;;;;;;5072793;28;20536;-75
2022/03/07 08:28:19;;;;;;;11.48;6.85;;;15.10;99.90;;;;;;5071560;28;20341;-75
2022/03/07 08:30:44;;;;;;;9.32;7.57;;;15.00;99.90;;;;;;5072307;28;20199;-75
2022/03/07 08:33:10;;;;;;;8.48;6.80;;;15.10;99.90;;;;;;5072174;28;20256;-75
2022/03/07 08:35:36;;;;;;;12.57;7.70;;;14.90;99.90;;;;;;5070780;28;20218;-75
2022/03/07 08:38:02;;;;;;;9.32;7.00;;;14.80;99.90;;;;;;5071815;28;20213;-76
2022/03/07 08:40:27;;;;;;;12.45;7.32;;;14.60;99.90;;;;;;5071778;28;20699;-76
2022/03/07 08:42:53;;;;;;;13.07;7.10;;;14.50;99.90;;;;;;5053913;28;20225;-74
2022/03/07 08:45:21;;;;;;;10.85;7.30;;;14.40;99.90;;;;;;5053924;28;20643;-75
2022/03/07 08:47:46;;;;;;;8.20;6.40;;;13.90;99.90;;;;;;5055226;28;20604;-76
2022/03/07 08:50:17;;;;;;;9.77;7.27;;;13.80;99.90;;;;;;5070301;28;20619;-77
2022/03/07 08:52:43;;;;;;;11.87;7.17;;;13.90;99.90;;;;;;5054613;28;20253;-76
2022/03/07 08:55:09;;;;;;;9.87;6.93;;;14.00;99.90;;;;;;5071869;28;20234;-76
2022/03/07 08:57:35;;;;;;;13.17;7.70;;;13.90;99.90;;;;;;5071167;28;20239;-77
2022/03/07 09:00:00;;;;;;;13.33;6.70;;;13.80;99.90;;;;;;5071451;28;20783;-77
2022/03/07 09:02:26;;;;;;;10.50;6.77;;;13.60;99.90;;;;;;5071677;28;20229;-75
2022/03/07 09:04:51;;;;;;;10.47;6.83;;;13.70;99.90;;;;;;5053846;28;20175;-76
2022/03/07 09:07:17;;;;;;;11.43;7.03;;;13.80;99.90;;;;;;5071517;28;20738;-77
2022/03/07 09:09:42;;;;;;;9.30;5.80;;;13.40;99.90;;;;;;5070787;28;20873;-76
2022/03/07 09:12:08;;;;;;;8.63;6.60;;;13.20;99.90;;;;;;5054096;28;20207;-77
2022/03/07 09:14:34;;;;;;;12.43;7.40;;;13.30;99.90;;;;;;5053599;28;20214;-76
2022/03/07 09:17:00;;;;;;;11.30;5.83;;;12.70;99.90;;;;;;5054375;28;20578;-77
2022/03/07 09:19:26;;;;;;;10.43;6.23;;;12.40;99.90;;;;;;5052549;28;20203;-76
2022/03/07 09:21:52;;;;;;;8.67;6.03;;;12.20;99.90;;;;;;5053549;28;20200;-76
2022/03/07 09:24:19;;;;;;;13.50;8.63;;;12.10;99.90;;;;;;5071693;28;20214;-76
2022/03/07 09:26:44;;;;;;;10.07;5.63;;;12.20;99.90;;;;;;5053737;28;20726;-77
2022/03/07 09:29:11;;;;;;;10.67;6.83;;;12.30;99.90;;;;;;5066392;28;20167;-76
2022/03/07 09:31:38;;;;;;;10.47;6.57;;;12.10;99.90;;;;;;5071179;28;20253;-76
2022/03/07 09:34:04;;;;;;;9.03;6.03;;;11.80;99.90;;;;;;5072072;28;20248;-76
2022/03/07 09:36:29;;;;;;;11.50;6.73;;;11.80;99.90;;;;;;5070217;28;20211;-76
2022/03/07 09:38:55;;;;;;;10.30;6.60;;;11.80;99.90;;;;;;5070616;28;20723;-76
2022/03/07 09:41:20;;;;;;;10.00;6.07;;;11.80;99.90;;;;;;5053168;28;20551;-76
2022/03/07 09:43:46;;;;;;;10.70;6.53;;;12.30;99.90;;;;;;5053741;28;20262;-76
2022/03/07 09:46:14;;;;;;;12.93;6.80;;;11.90;99.90;;;;;;5052965;28;20214;-76
2022/03/07 09:48:41;;;;;;;10.10;6.53;;;12.10;99.90;;;;;;5070792;28;20211;-76
2022/03/07 09:51:06;;;;;;;11.60;6.17;;;12.40;99.90;;;;;;5071060;28;20703;-78
2022/03/07 09:53:32;;;;;;;10.47;7.20;;;12.40;99.90;;;;;;5052624;28;20298;-76
2022/03/07 09:55:58;;;;;;;11.10;7.37;;;12.30;99.90;;;;;;5071460;28;20564;-76
2022/03/07 09:58:23;;;;;;;10.37;7.50;;;11.90;99.90;;;;;;5070460;28;20302;-76
2022/03/07 10:00:49;;;;;;;9.27;6.90;;;11.80;99.90;;;;;;5071558;28;20195;-76
2022/03/07 10:03:18;;;;;;;11.77;7.03;;;11.80;99.90;;;;;;5070702;28;20265;-76
2022/03/07 10:05:45;;;;;;;14.87;7.23;;;11.70;99.90;;;;;;5069915;28;20202;-78
2022/03/07 10:08:22;;;;;;;11.43;7.57;;;11.50;99.90;;;;;;5052126;28;20256;-77
2022/03/07 10:10:50;;;;;;;13.40;7.47;;;11.00;99.90;;;;;;5054993;28;20170;-77
2022/03/07 10:13:16;;;;;;;14.73;7.57;;;10.90;99.90;;;;;;5053260;28;20211;-78
2022/03/07 10:15:42;;;;;;;13.73;7.63;;;11.00;99.90;;;;;;5070734;28;20206;-77
2022/03/07 10:18:15;;;;;;;13.80;7.10;;;11.40;99.90;;;;;;5051862;28;20211;-77
2022/03/07 10:20:49;;;;;;;11.70;7.27;;;11.30;99.90;;;;;;5071347;28;20246;-77
2022/03/07 10:23:14;;;;;;;12.17;7.60;;;11.20;99.90;;;;;;5052702;28;20560;-77
2022/03/07 10:25:42;;;;;;;10.67;6.67;;;11.20;99.90;;;;;;5071708;28;20217;-77
2022/03/07 10:28:08;;;;;;;11.57;7.07;;;11.30;99.90;;;;;;5051883;28;20202;-77
2022/03/07 10:30:35;;;;;;;12.23;7.57;;;11.40;99.90;;;;;;5070907;28;20214;-76
2022/03/07 10:33:05;;;;;;;9.83;7.30;;;11.30;99.90;;;;;;5070989;28;20644;-76
2022/03/07 10:35:42;;;;;;;12.27;7.50;;;11.70;99.90;;;;;;5069622;28;20218;-76
2022/03/07 10:38:11;;;;;;;13.60;7.40;;;11.50;99.90;;;;;;5070414;28;20186;-77
2022/03/07 10:40:41;;;;;;;11.20;7.50;;;11.40;99.90;;;;;;5070734;28;20203;-77
2022/03/07 10:43:07;;;;;;;12.63;7.80;;;11.40;99.90;;;;;;5070618;28;20285;-76
2022/03/07 10:45:45;;;;;;;12.57;7.47;;;11.80;99.90;;;;;;5070207;28;20238;-77
2022/03/07 10:48:11;;;;;;;8.33;6.37;;;12.00;99.90;;;;;;5069772;28;20202;-77
2022/03/07 10:50:36;;;;;;;13.23;7.77;;;11.90;99.90;;;;;;5052600;28;20302;-75
2022/03/07 10:53:05;;;;;;;8.80;7.40;;;11.90;99.90;;;;;;5053276;28;20163;-76
2022/03/07 10:55:32;;;;;;;10.73;6.97;;;11.40;99.90;;;;;;5070925;28;20278;-76
2022/03/07 10:58:10;;;;;;;16.33;10.17;;;11.50;99.90;;;;;;5070897;28;20298;-75
2022/03/07 11:00:55;;;;;;;12.60;7.50;;;11.50;99.90;;;;;;5052888;28;20333;-77
2022/03/07 11:03:28;;;;;;;9.33;6.93;;;11.70;99.90;;;;;;5052250;28;20211;-75
2022/03/07 11:05:54;;;;;;;10.07;7.07;;;11.50;99.90;;;;;;5051231;28;20235;-76
2022/03/07 11:08:20;;;;;;;12.03;6.87;;;11.50;99.90;;;;;;5051839;28;20198;-77
2022/03/07 11:10:51;;;;;;;9.50;7.20;;;11.40;99.90;;;;;;5054192;28;20709;-77
2022/03/07 11:13:19;;;;;;;8.73;5.90;;;11.40;99.90;;;;;;5052251;28;20214;-76
2022/03/07 11:15:46;;;;;;;9.83;6.33;;;11.70;99.90;;;;;;5052039;28;20218;-76
2022/03/07 11:18:13;;;;;;;10.93;6.77;;;11.70;99.90;;;;;;5051094;28;20298;-76
2022/03/07 11:20:48;;;;;;;9.00;6.23;;;11.60;99.90;;;;;;5070013;28;20214;-76
2022/03/07 11:23:20;;;;;;;9.37;6.43;;;11.50;99.90;;;;;;5073527;28;20197;-76
2022/03/07 11:25:46;;;;;;;11.13;7.20;;;11.40;99.90;;;;;;5039925;28;20199;-76
2022/03/07 11:28:12;;;;;;;8.33;5.57;;;11.50;99.90;;;;;;5072730;28;20203;-76
2022/03/07 11:30:41;;;;;;;10.70;6.23;;;11.30;99.90;;;;;;5073383;28;20567;-77
2022/03/07 11:33:19;;;;;;;7.33;5.53;;;11.60;99.90;;;;;;5073555;28;20206;-77
2022/03/07 11:35:50;;;;;;;10.87;5.93;;;11.80;99.90;;;;;;5072283;28;20297;-77
2022/03/07 11:38:21;;;;;;;8.07;5.37;;;11.60;99.90;;;;;;5060477;22;20235;-76
2022/03/07 11:41:12;;;;;;;6.03;4.47;;;11.80;99.90;;;;;;5039409;28;20257;-76
2022/03/07 11:44:10;;;;;;;7.47;4.57;;;11.70;99.90;;;;;;5054196;28;20235;-77
2022/03/07 11:46:41;;;;;;;6.27;4.10;;;11.30;99.90;;;;;;5036792;28;20246;-76
2022/03/07 11:49:10;;;;;;;5.87;3.77;;;11.20;99.90;;;;;;5053081;28;20210;-77
2022/03/07 11:51:38;;;;;;;5.57;3.80;;;11.30;99.90;;;;;;5053998;28;20294;-76
2022/03/07 11:54:06;;;;;;;6.30;3.90;;;11.20;99.90;;;;;;5052407;28;20203;-76
2022/03/07 11:56:37;;;;;;;8.20;4.87;;;11.20;99.90;;;;;;5053296;28;20215;-76
2022/03/07 11:59:05;;;;;;;5.83;4.33;;;11.20;99.90;;;;;;5054607;28;20807;-76
2022/03/07 12:01:32;;;;;;;7.83;4.70;;;11.20;99.90;;;;;;5053342;28;20217;-76
2022/03/07 12:04:15;;;;;;;6.57;4.20;;;11.20;99.90;;;;;;5052608;28;20207;-77
2022/03/07 12:06:53;;;;;;;8.63;5.07;;;11.30;99.90;;;;;;5051321;28;20966;-76
2022/03/07 12:09:33;;;;;;;7.57;4.73;;;11.30;99.90;;;;;;5052478;28;20211;-77
2022/03/07 12:12:04;;;;;;;8.60;4.83;;;11.20;99.90;;;;;;5040064;28;20204;-76
2022/03/07 12:14:32;;;;;;;6.77;5.00;;;11.30;99.90;;;;;;5053031;28;20954;-77
2022/03/07 12:17:01;;;;;;;4.90;4.03;;;10.90;99.90;;;;;;5053467;28;20290;-76
2022/03/07 12:19:28;;;;;;;9.07;5.30;;;11.00;99.90;;;;;;5052539;28;20698;-77
2022/03/07 12:21:54;;;;;;;7.57;4.80;;;11.00;99.90;;;;;;5051915;28;20195;-76
2022/03/07 12:24:22;;;;;;;7.20;4.50;;;11.10;99.90;;;;;;5051860;28;20290;-77
2022/03/07 12:26:51;;;;;;;6.43;4.33;;;11.00;99.90;;;;;;5037039;28;20211;-77
2022/03/07 12:29:19;;;;;;;11.27;6.07;;;11.00;99.90;;;;;;5052287;28;20175;-76
2022/03/07 12:31:50;;;;;;;5.13;3.57;;;11.20;99.90;;;;;;5047143;28;20204;-76
2022/03/07 12:34:24;;;;;;;7.33;3.90;;;11.20;99.90;;;;;;5043926;28;20283;-77
2022/03/07 12:37:11;;;;;;;6.10;3.47;;;11.10;99.90;;;;;;5037339;28;20739;-76
2022/03/07 12:39:57;;;;;;;4.50;2.77;;;11.10;99.90;;;;;;5051195;28;20208;-77
2022/03/07 12:42:36;;;;;;;6.37;3.17;;;11.10;99.90;;;;;;5052555;28;20207;-77
2022/03/07 12:45:04;;;;;;;6.77;4.17;;;10.90;99.90;;;;;;5052504;28;20204;-76
2022/03/07 12:47:32;;;;;;;5.43;3.20;;;10.90;99.90;;;;;;5050956;28;20286;-77